Latest Weather Observations for Puckapunyal West (Defence)

IDV60801

Issued at 1:32 pm EDT Saturday 22 February 2020 (issued every 10 minutes, with the page automatically refreshed every 10 minutes)

About weather observations | Map of weather stations | Latest weather observations for VIC | Other Formats
Station Details ID: 088166 Name: PUCKAPUNYAL WEST (DEFENCE) Lat: -37.02 Lon: 144.85 Height: 293.0 m
Data from the previous 72 hours. | See also: Recent months at Puckapunyal West (Defence)
Date/Time
EDT
Temp
°C
App
Temp
°C
Dew
Point
°C
Rel
Hum
%
Delta-T
°C
Wind Press
QNH
hPa
Press
MSL
hPa
Rain since
9am
mm
Dir  Spd
km/h
Gust
km/h
Spd
kts
Gust
kts
22/01:30pm 22.9 20.5 10.0 44 7.1 ESE 13 20 7 11 - - 0.0
22/01:00pm 22.6 21.2 11.0 48 6.5 SSE 9 17 5 9 - - 0.0
22/12:30pm 21.8 20.7 10.6 49 6.2 ESE 7 13 4 7 - - 0.0
22/12:00pm 21.4 20.1 11.4 53 5.6 E 9 19 5 10 - - 0.0
22/11:30am 20.9 19.1 10.7 52 5.7 SE 11 20 6 11 - - 0.0
22/11:00am 19.2 15.3 8.5 50 5.6 SE 19 26 10 14 - - 0.0
22/10:30am 18.5 13.5 7.9 50 5.5 SSE 24 33 13 18 - - 0.0
22/10:00am 16.8 10.6 7.7 55 4.6 S 30 41 16 22 - - 0.0
22/09:30am 15.6 9.2 7.1 57 4.3 SSE 30 46 16 25 - - 0.0
22/09:00am 14.6 9.2 8.1 65 3.3 SSE 26 39 14 21 - - 0.0
22/08:30am 13.1 8.0 7.8 70 2.6 SSE 24 37 13 20 - - 0.0
22/08:00am 12.1 7.0 7.6 74 2.2 SSE 24 39 13 21 - - 0.0
22/07:30am 11.5 6.3 7.2 75 2.1 SSE 24 37 13 20 - - 0.0
22/07:00am 11.1 5.5 7.2 77 1.9 SSE 26 39 14 21 - - 0.0
22/06:30am 10.5 4.9 7.0 79 1.7 SSE 26 39 14 21 - - 0.0
22/06:00am 10.8 5.6 7.1 78 1.8 SSE 24 35 13 19 - - 0.0
22/05:30am 11.3 6.4 6.8 74 2.2 SSE 22 33 12 18 - - 0.0
22/05:00am 11.5 5.0 6.6 72 2.4 S 30 43 16 23 - - 0.0
22/04:30am 11.4 4.4 6.7 73 2.3 S 33 50 18 27 - - 0.0
22/04:02am 11.4 4.4 6.9 74 2.2 SSE 33 52 18 28 - - 0.0
22/04:00am 11.4 4.0 6.9 74 2.2 S 35 52 19 28 - - 0.0
22/03:30am 11.3 4.3 6.8 74 2.2 SSE 33 50 18 27 - - 0.0
22/03:00am 11.4 4.0 6.9 74 2.2 SSE 35 48 19 26 - - 0.0
22/02:53am 11.3 4.0 7.0 75 2.1 SSE 35 54 19 29 - - 0.0
22/02:30am 11.4 3.8 7.5 77 1.9 SSE 37 56 20 30 - - 0.0
22/02:01am 11.4 3.1 7.7 78 1.8 SSE 41 63 22 34 - - 0.0
22/02:00am 11.4 3.1 7.7 78 1.8 SSE 41 57 22 31 - - 0.0
22/01:30am 11.5 3.6 7.8 78 1.8 SSE 39 57 21 31 - - 0.0
22/01:00am 11.7 3.4 7.6 76 2.0 SSE 41 61 22 33 - - 0.0
22/12:30am 11.9 4.3 7.6 75 2.1 SSE 37 57 20 31 - - 0.0
22/12:12am 11.9 4.3 7.6 75 2.1 SSE 37 56 20 30 - - 0.0
22/12:00am 12.0 3.7 7.9 76 2.0 SSE 41 59 22 32 - - 0.0
 
Date/Time
EDT
Temp
°C
App
Temp
°C
Dew
Point
°C
Rel
Hum
%
Delta-T
°C
Wind Press
QNH
hPa
Press
MSL
hPa
Rain since
9am
mm
Dir  Spd
km/h
Gust
km/h
Spd
kts
Gust
kts
21/11:30pm 12.1 4.6 7.8 75 2.1 SSE 37 56 20 30 - - 0.0
21/11:00pm 12.4 3.6 7.3 71 2.5 S 43 61 23 33 - - 0.0
21/10:30pm 12.8 4.9 7.7 71 2.5 S 39 54 21 29 - - 0.0
21/10:03pm 13.0 6.4 7.9 71 2.6 SSE 32 52 17 28 - - 0.0
21/10:00pm 13.0 6.2 7.9 71 2.6 SSE 33 52 18 28 - - 0.0
21/09:30pm 13.3 6.8 8.0 70 2.7 S 32 46 17 25 - - 0.0
21/09:00pm 13.6 7.1 8.0 69 2.8 S 32 44 17 24 - - 0.0
21/08:57pm 13.7 7.1 7.9 68 2.9 S 32 52 17 28 - - 0.0
21/08:30pm 14.2 7.8 8.6 69 2.9 S 32 43 17 23 - - 0.0
21/08:09pm 14.7 8.5 8.0 64 3.4 S 30 48 16 26 - - 0.0
21/08:00pm 14.9 8.3 7.9 63 3.5 S 32 48 17 26 - - 0.0
21/07:40pm 15.4 9.1 7.4 59 4.0 S 30 50 16 27 - - 0.0
21/07:30pm 15.7 9.0 7.2 57 4.3 S 32 48 17 26 - - 0.0
21/07:00pm 16.6 9.6 7.0 53 4.8 S 33 52 18 28 - - 0.0
21/06:55pm 16.7 9.9 6.8 52 5.0 S 32 52 17 28 - - 0.0
21/06:30pm 17.3 10.6 7.4 52 5.0 S 32 46 17 25 - - 0.0
21/06:00pm 18.1 11.5 7.8 51 5.3 S 32 50 17 27 - - 0.0
21/05:30pm 18.2 10.6 7.6 50 5.5 S 37 56 20 30 - - 0.0
21/05:24pm 18.4 11.2 7.8 50 5.5 S 35 56 19 30 - - 0.0
21/05:00pm 18.6 10.6 7.4 48 5.8 S 39 54 21 29 - - 0.0
21/04:50pm 19.1 12.2 8.7 51 5.5 S 35 56 19 30 - - 0.0
21/04:30pm 19.1 12.1 8.4 50 5.6 SSE 35 50 19 27 - - 0.0
21/04:00pm 19.9 14.1 9.5 51 5.6 SSE 30 50 16 27 - - 0.0
21/03:43pm 19.5 13.5 10.2 55 5.1 SSE 32 52 17 28 - - 0.0
21/03:30pm 18.4 11.8 10.0 58 4.5 SSE 35 50 19 27 - - 0.0
21/03:03pm 19.5 12.5 10.0 54 5.2 S 37 57 20 31 - - 0.0
21/03:00pm 19.9 12.9 9.8 52 5.5 S 37 54 20 29 - - 0.0
21/02:30pm 19.2 12.1 9.7 54 5.1 SSE 37 52 20 28 - - 0.0
21/02:20pm 19.0 11.9 9.5 54 5.1 SSE 37 56 20 30 - - 0.0
21/02:00pm 20.3 13.6 9.8 51 5.7 S 35 50 19 27 - - 0.0
21/01:48pm 19.6 12.6 9.8 53 5.3 S 37 59 20 32 - - 0.0
21/01:30pm 19.5 13.3 10.0 54 5.2 SSE 33 46 18 25 - - 0.0
21/01:21pm 19.0 12.8 9.5 54 5.1 SSE 32 50 17 27 - - 0.0
21/01:00pm 19.1 12.5 8.7 51 5.5 SSE 33 48 18 26 - - 0.0
21/12:47pm 19.1 12.3 7.8 48 5.9 SSE 33 54 18 29 - - 0.0
21/12:30pm 18.8 11.8 8.5 51 5.4 SSE 35 52 19 28 - - 0.0
21/12:20pm 18.8 12.3 8.2 50 5.5 SSE 32 52 17 28 - - 0.0
21/12:00pm 17.9 10.5 8.5 54 4.9 SSE 37 54 20 29 - - 0.0
21/11:49am 17.4 11.4 8.8 57 4.5 SSE 30 48 16 26 - - 0.0
21/11:30am 16.1 9.3 9.3 64 3.6 SSE 35 50 19 27 - - 0.0
21/11:00am 15.6 9.3 9.7 68 3.1 S 33 52 18 28 - - 0.0
21/10:52am 15.0 9.6 9.6 70 2.8 SSE 28 52 15 28 - - 0.0
21/10:30am 15.5 11.1 10.5 72 2.7 SSE 24 37 13 20 - - 0.0
21/10:00am 14.8 8.6 10.2 74 2.4 SSE 33 50 18 27 - - 0.0
21/09:30am 14.8 10.1 10.8 77 2.1 SSE 26 43 14 23 - - 0.0
21/09:04am 13.6 7.4 10.2 80 1.8 SSE 33 52 18 28 - - 0.0
21/09:00am 13.2 6.6 10.0 81 1.7 SSE 35 52 19 28 - - 0.0
21/08:53am 13.4 7.3 9.8 79 1.9 SE 32 52 17 28 - - 0.0
21/08:30am 12.8 7.1 9.8 82 1.6 SSE 30 46 16 25 - - 0.0
21/08:00am 12.7 7.7 9.7 82 1.6 SSE 26 37 14 20 - - 0.0
21/07:30am 12.0 9.1 9.7 86 1.2 SSE 15 22 8 12 - - 0.0
21/07:00am 11.4 7.5 9.5 88 1.0 SSE 20 37 11 20 - - 0.0
21/06:30am 11.2 6.4 8.9 86 1.2 SSE 24 35 13 19 - - 0.0
21/06:00am 11.6 7.6 9.0 84 1.3 SSE 20 35 11 19 - - 0.0
21/05:30am 11.0 7.5 8.9 87 1.1 SSE 17 30 9 16 - - 0.0
21/05:00am 11.5 7.6 8.7 83 1.4 SSE 19 32 10 17 - - 0.0
21/04:30am 12.1 9.0 8.8 80 1.7 SSE 15 28 8 15 - - 0.0
21/04:00am 12.2 8.0 8.3 77 2.0 S 20 30 11 16 - - 0.0
21/03:30am 12.6 8.6 8.1 74 2.3 S 19 28 10 15 - - 0.0
21/03:00am 13.0 8.1 8.3 73 2.4 S 24 35 13 19 - - 0.0
21/02:30am 13.2 8.2 8.1 71 2.6 S 24 39 13 21 - - 0.0
21/02:00am 13.0 9.0 8.9 76 2.1 S 20 33 11 18 - - 0.0
21/01:30am 12.9 7.9 9.5 80 1.8 SSE 26 35 14 19 - - 0.0
21/01:00am 13.1 9.1 9.2 77 2.0 S 20 32 11 17 - - 0.0
21/12:30am 12.9 8.5 8.8 76 2.1 S 22 37 12 20 - - 0.0
21/12:00am 13.2 8.4 8.9 75 2.2 S 24 33 13 18 - - 0.0
 
Date/Time
EDT
Temp
°C
App
Temp
°C
Dew
Point
°C
Rel
Hum
%
Delta-T
°C
Wind Press
QNH
hPa
Press
MSL
hPa
Rain since
9am
mm
Dir  Spd
km/h
Gust
km/h
Spd
kts
Gust
kts
20/11:30pm 13.5 8.8 9.4 76 2.1 S 24 37 13 20 - - 0.0
20/11:00pm 13.8 9.6 9.6 76 2.2 S 22 33 12 18 - - 0.0
20/10:30pm 14.0 10.4 9.8 76 2.2 SSE 19 30 10 16 - - 0.0
20/10:00pm 13.9 8.9 9.5 75 2.3 SSE 26 35 14 19 - - 0.0
20/09:30pm 14.3 11.0 9.5 73 2.5 S 17 28 9 15 - - 0.0
20/09:00pm 14.6 10.6 9.2 70 2.8 S 20 32 11 17 - - 0.0
20/08:30pm 14.5 11.5 9.1 70 2.8 SSE 15 28 8 15 - - 0.0
20/08:00pm 14.8 11.3 8.7 67 3.1 S 17 24 9 13 - - 0.0
20/07:30pm 15.4 11.5 8.6 64 3.5 SSE 19 26 10 14 - - 0.0
20/07:00pm 16.2 12.0 8.4 60 4.0 SSE 20 32 11 17 - - 0.0
20/06:30pm 17.0 12.4 8.2 56 4.5 S 22 33 12 18 - - 0.0
20/06:00pm 16.8 11.9 8.5 58 4.3 S 24 33 13 18 - - 0.0
20/05:30pm 18.0 14.1 9.4 57 4.6 S 20 33 11 18 - - 0.0
20/05:00pm 17.0 12.1 8.4 57 4.5 S 24 33 13 18 - - 0.0
20/04:30pm 17.0 12.0 8.2 56 4.5 S 24 35 13 19 - - 0.0
20/04:00pm 18.1 13.4 9.2 56 4.7 SSE 24 35 13 19 - - 0.0
20/03:30pm 17.8 12.8 8.1 53 5.0 SSE 24 43 13 23 - - 0.0
20/03:00pm 17.6 12.2 7.9 53 5.0 S 26 41 14 22 - - 0.0
20/02:30pm 19.0 14.1 8.6 51 5.5 S 24 33 13 18 - - 0.0
20/02:00pm 18.3 13.9 9.1 55 4.9 S 22 33 12 18 - - 0.0
20/01:30pm 17.0 11.6 7.9 55 4.7 SSE 26 39 14 21 - - 0.0
20/01:00pm 16.5 11.0 7.4 55 4.6 S 26 35 14 19 - - 0.0
20/12:30pm 16.2 11.4 7.4 56 4.5 SSE 22 30 12 16 - - 0.0
20/12:00pm 16.2 10.9 6.6 53 4.8 S 24 35 13 19 - - 0.0
20/11:30am 16.5 11.7 7.4 55 4.6 S 22 32 12 17 - - 0.0
20/11:00am 15.1 9.8 6.7 57 4.2 S 24 39 13 21 - - 0.0
20/10:30am 14.8 9.9 7.1 60 3.8 S 22 33 12 18 - - 0.0
20/10:00am 14.8 9.1 6.9 59 3.9 S 26 39 14 21 - - 0.0
20/09:30am 14.0 9.2 7.3 64 3.3 S 22 33 12 18 - - 0.0
20/09:00am 13.4 9.1 7.8 69 2.8 SSW 20 33 11 18 - - 0.0
20/08:30am 12.9 9.3 8.4 74 2.3 S 17 30 9 16 - - 0.0
20/08:00am 12.4 8.4 8.3 76 2.1 S 19 30 10 16 - - 0.0
20/07:30am 12.2 8.0 8.3 77 2.0 S 20 32 11 17 - - 0.0
20/07:00am 12.3 9.0 8.2 76 2.1 S 15 24 8 13 - - 0.0
20/06:30am 12.3 8.1 8.2 76 2.1 SSW 20 28 11 15 - - 0.0
20/06:00am 12.1 7.2 8.6 79 1.8 S 24 35 13 19 - - 0.0
20/05:30am 12.2 7.4 8.7 79 1.8 SSW 24 35 13 19 - - 0.0
20/05:00am 12.3 9.1 8.6 78 1.9 SSW 15 24 8 13 - - 0.0
20/04:30am 12.2 8.1 8.5 78 1.9 SSW 20 30 11 16 - - 0.0
20/04:00am 12.4 8.0 8.9 79 1.8 SSW 22 33 12 18 - - 0.0
20/03:30am 12.4 7.6 8.9 79 1.8 SSW 24 35 13 19 - - 0.0
20/03:00am 12.4 8.6 9.1 80 1.7 SSW 19 26 10 14 - - 0.0
20/02:30am 12.2 8.2 9.2 82 1.5 S 20 30 11 16 - - 0.0
20/02:00am 12.7 8.9 9.2 79 1.8 S 19 28 10 15 - - 0.0
20/01:30am 12.2 8.4 9.0 81 1.6 S 19 28 10 15 - - 0.0
20/01:00am 12.3 8.5 9.0 80 1.7 S 19 30 10 16 - - 0.0
20/12:30am 12.6 8.5 8.7 77 2.0 SSW 20 32 11 17 - - 0.0
20/12:00am 12.8 8.7 8.7 76 2.1 S 20 32 11 17 - - 0.0
 
Date/Time
EDT
Temp
°C
App
Temp
°C
Dew
Point
°C
Rel
Hum
%
Delta-T
°C
Wind Press
QNH
hPa
Press
MSL
hPa
Rain since
9am
mm
Dir  Spd
km/h
Gust
km/h
Spd
kts
Gust
kts
19/11:30pm 12.9 8.6 9.2 78 1.9 SSW 22 35 12 19 - - 0.0
19/11:00pm 12.6 8.6 9.1 79 1.8 SSW 20 33 11 18 - - 0.0
19/10:30pm 12.8 7.2 10.0 83 1.5 SSW 30 43 16 23 - - 0.0
19/10:01pm 13.2 7.9 9.8 80 1.8 SSW 28 46 15 25 - - 0.0
19/10:00pm 13.2 8.3 9.8 80 1.8 SSW 26 46 14 25 - - 0.0
19/09:30pm 13.3 7.9 9.5 78 2.0 S 28 43 15 23 - - 0.0
19/09:00pm 14.2 10.1 10.2 77 2.1 S 22 39 12 21 - - 0.0
19/08:30pm 14.1 10.4 10.1 77 2.1 SSE 20 35 11 19 - - 0.0
19/08:00pm 15.2 10.2 9.6 69 2.9 SSW 26 41 14 22 - - 0.0
19/07:30pm 15.6 10.6 9.7 68 3.1 S 26 41 14 22 - - 0.0
19/07:00pm 16.3 11.0 9.7 65 3.5 S 28 39 15 21 - - 0.0
19/06:30pm 16.9 11.1 9.3 61 4.0 SSW 30 41 16 22 - - 0.0
19/06:00pm 17.2 11.2 8.6 57 4.5 S 30 43 16 23 - - 0.0
19/05:39pm 18.3 12.4 9.1 55 4.9 S 30 50 16 27 - - 0.0
19/05:30pm 18.4 11.7 9.7 57 4.7 S 35 44 19 24 - - 0.0
19/05:00pm 18.3 12.3 8.8 54 5.0 S 30 44 16 24 - - 0.0
19/04:30pm 19.9 14.3 8.6 48 6.0 S 28 43 15 23 - - 0.0
19/04:15pm 18.6 12.5 8.3 51 5.4 SSW 30 48 16 26 - - 0.0
19/04:00pm 18.7 11.5 7.8 49 5.6 S 35 48 19 26 - - 0.0
19/03:30pm 20.5 13.3 7.8 44 6.7 S 35 54 19 29 - - 0.0
19/03:12pm 20.9 14.0 6.4 39 7.4 SSW 32 50 17 27 - - 0.0
19/03:00pm 19.7 12.8 6.4 42 6.8 SSW 32 48 17 26 - - 0.0
19/02:30pm 20.7 13.7 7.0 41 7.1 S 33 52 18 28 - - 0.0
19/02:25pm 21.0 14.4 7.6 42 7.0 S 32 52 17 28 - - 0.0
19/02:00pm 19.9 12.6 5.5 39 7.2 SSW 33 46 18 25 - - 0.0

Other formats

Comma delimited format used in spreadsheet applications
http://www.bom.gov.au/fwo/IDV60801/IDV60801.94856.axf

JavaScript Object Notation format (JSON) in row-major order
http://www.bom.gov.au/fwo/IDV60801/IDV60801.94856.json

Data quality

Most of these data are generated automatically and are frequently updated. Quality checks on data are not normally performed. It is possible for incorrect values to appear. Refer to information at About Latest Weather Observations and please check the disclaimer before using these data.